Multratug 19 — PCHZ — position and weather

sailwx.info

Track history (hours):
 
Tides and Currents Weather Stations Pressure Air Temp Water Temp Dewpoint Dewpoint Depression Visibility Wind Speed Wind Dir Waves Ship Positions

Multratug 19

Last reported at 2014-Sep-19 09:34 UTC. Time now 2014-Sep-19 09:50 UTC.
Position N 37°55' E 009°29'.

Length 32 m; draft 5.2 m.

Type: Tug. MMSI: 245875000.

Date/timePositionNaut miles runAvg speedWind from/ knotsBaromVisibWave heightAir tempDewpointWater temp
2014-Sep-19 09:34N 37°55' E 009°29'10 9.4
2014-Sep-19 08:33N 37°56' E 009°41'10 9.5
2014-Sep-19 07:32N 37°57' E 009°53'9 9.5
2014-Sep-19 06:33N 37°58' E 010°04'10 9.4
2014-Sep-19 05:31N 37°59' E 010°17'177 9.4
2014-Sep-18 10:34N 37°04' E 013°50'10 9.9
2014-Sep-18 09:34N 36°59' E 014°00'10 9.9
2014-Sep-18 08:33N 36°52' E 014°09'  
2014-Sep-16 03:19N 36°31' E 023°52'1810.2
2014-Sep-16 01:34N 36°48' E 023°59'1110.3
2014-Sep-16 00:32N 36°58' E 024°03'31 9.9
2014-Sep-15 21:23N 37°27' E 024°18'810.0
2014-Sep-15 20:33N 37°34' E 024°25'21 9.8
2014-Sep-15 18:25N 37°53' E 024°34'29 9.7
2014-Sep-15 15:29N 38°19' E 024°48'247 9.9
2014-Sep-14 14:28N 40°57' E 028°55'  
Track history (hours):
 
Tides and Currents Weather Stations Pressure Air Temp Water Temp Dewpoint Dewpoint Depression Visibility Wind Speed Wind Dir Waves Ship Positions

Multratug 19

Last reported at 2014-Sep-19 09:34 UTC. Time now 2014-Sep-19 09:50 UTC.
Position N 37°55' E 009°29'.

Length 32 m; draft 5.2 m.

Type: Tug. MMSI: 245875000.

Date/timePositionNaut miles runAvg speedWind from/ knotsBaromVisibWave heightAir tempDewpointWater temp
2014-Sep-19 09:34N 37°55' E 009°29'10 9.4
2014-Sep-19 08:33N 37°56' E 009°41'10 9.5
2014-Sep-19 07:32N 37°57' E 009°53'9 9.5
2014-Sep-19 06:33N 37°58' E 010°04'10 9.4
2014-Sep-19 05:31N 37°59' E 010°17'177 9.4
2014-Sep-18 10:34N 37°04' E 013°50'10 9.9
2014-Sep-18 09:34N 36°59' E 014°00'10 9.9
2014-Sep-18 08:33N 36°52' E 014°09'  
2014-Sep-16 03:19N 36°31' E 023°52'1810.2
2014-Sep-16 01:34N 36°48' E 023°59'1110.3
2014-Sep-16 00:32N 36°58' E 024°03'31 9.9
2014-Sep-15 21:23N 37°27' E 024°18'810.0
2014-Sep-15 20:33N 37°34' E 024°25'21 9.8
2014-Sep-15 18:25N 37°53' E 024°34'29 9.7
2014-Sep-15 15:29N 38°19' E 024°48'247 9.9
2014-Sep-14 14:28N 40°57' E 028°55'  

Dump ship's entire track history